Time;durP1;ratioP1;P1;durP2;ratioP2;P2;SDS_P1;SDS_P2;PMS_P1;PMS_P2;Temp;Humidity;BMP_temperature;BMP_pressure;BME280_temperature;BME280_humidity;BME280_pressure;Samples;Min_cycle;Max_cycle;Signal;HPM_P1;HPM_P2
2022/12/23 00:00:43;;;;;;;;;;;;;;;7.89;100.00;100298.03;5070973;28;19931;-74
2022/12/23 00:03:09;;;;;;;;;;;;;;;7.89;100.00;100295.41;5088343;28;20074;-75
2022/12/23 00:05:36;;;;;;;;;;;;;;;7.89;100.00;100298.03;5088880;28;19916;-75
2022/12/23 00:08:01;;;;;;;;;;;;;;;7.89;100.00;100298.84;5086706;28;20500;-75
2022/12/23 00:10:26;;;;;;;;;;;;;;;7.90;100.00;100294.41;5088632;28;20201;-74
2022/12/23 00:15:36;;;;;;;;;;;;;;;7.92;100.00;100300.34;5088577;28;19926;-75
2022/12/23 00:18:01;;;;;;;;;;;;;;;7.92;100.00;100302.97;5088337;28;19916;-75
2022/12/23 00:20:26;;;;;;;;;;;;;;;7.92;100.00;100292.47;5070978;28;20358;-75
2022/12/23 00:23:03;;;;;;;;;;;;;;;7.92;100.00;100292.47;5088201;28;20746;-75
2022/12/23 00:25:43;;;;;;;;;;;;;;;7.93;100.00;100297.59;5088343;28;19922;-75
2022/12/23 00:28:16;;;;;;;;;;;;;;;7.92;100.00;100293.28;5087999;28;20398;-75
2022/12/23 00:30:48;;;;;;;;;;;;;;;7.91;100.00;100288.19;5088743;28;20442;-75
2022/12/23 00:33:17;;;;;;;;;;;;;;;7.90;100.00;100286.53;5087446;28;19924;-76
2022/12/23 00:35:43;;;;;;;;;;;;;;;7.89;100.00;100293.59;5088907;28;20207;-77
2022/12/23 00:38:08;;;;;;;;;;;;;;;7.89;100.00;100295.41;5089101;28;19934;-74
2022/12/23 00:43:17;;;;;;;;;;;;;;;7.89;100.00;100287.53;5086983;28;20902;-75
2022/12/23 00:45:42;;;;;;;;;;;;;;;7.89;100.00;100295.41;5087075;28;19912;-74
2022/12/23 00:50:52;;;;;;;;;;;;;;;7.88;100.00;100296.34;5088059;28;20771;-74
2022/12/23 00:53:17;;;;;;;;;;;;;;;7.86;100.00;100298.31;5087054;28;19916;-75
2022/12/23 00:55:44;;;;;;;;;;;;;;;7.86;100.00;100299.16;5086925;28;19912;-74
2022/12/23 00:58:09;;;;;;;;;;;;;;;7.82;100.00;100301.22;5087584;28;19916;-74
2022/12/23 01:06:02;;;;;;;;;;;;;;;7.72;100.00;100300.44;5089909;28;20212;-75
2022/12/23 01:08:28;;;;;;;;;;;;;;;7.69;100.00;100306.00;5070393;28;20197;-75
2022/12/23 01:10:53;;;;;;;;;;;;;;;7.69;100.00;100302.53;5087485;28;19928;-75
2022/12/23 01:13:19;;;;;;;;;;;;;;;7.69;100.00;100306.00;5086254;28;19968;-74
2022/12/23 01:15:44;;;;;;;;;;;;;;;7.68;100.00;100312.19;5087614;28;20050;-76
2022/12/23 01:18:09;;;;;;;;;;;;;;;7.69;100.00;100321.75;5088037;28;19927;-75
2022/12/23 01:20:38;;;;;;;;;;;;;;;7.70;100.00;100336.53;5087732;28;20587;-75
2022/12/23 01:23:03;;;;;;;;;;;;;;;7.70;100.00;100347.03;5087653;28;19916;-76
2022/12/23 01:25:29;;;;;;;;;;;;;;;7.70;100.00;100352.28;5087773;28;19965;-75
2022/12/23 01:27:54;;;;;;;;;;;;;;;7.70;100.00;100349.66;5087357;28;19926;-75
2022/12/23 01:30:19;;;;;;;;;;;;;;;7.72;100.00;100352.97;5086775;28;19920;-75
2022/12/23 01:32:45;;;;;;;;;;;;;;;7.73;100.00;100356.41;5086686;28;19911;-75
2022/12/23 01:35:10;;;;;;;;;;;;;;;7.73;100.00;100345.91;5086422;28;20377;-75
2022/12/23 01:37:35;;;;;;;;;;;;;;;7.72;100.00;100347.72;5088084;28;19916;-75
2022/12/23 01:40:00;;;;;;;;;;;;;;;7.73;100.00;100335.41;5088886;28;19915;-75
2022/12/23 01:42:45;;;;;;;;;;;;;;;7.71;100.00;100338.19;5091441;28;20011;-75
2022/12/23 01:45:13;;;;;;;;;;;;;;;7.73;100.00;100336.25;5091022;28;19966;-75
2022/12/23 01:47:41;;;;;;;;;;;;;;;7.72;100.00;100346.91;5098077;28;19916;-75
2022/12/23 01:50:06;;;;;;;;;;;;;;;7.67;100.00;100346.50;5091859;28;20027;-75
2022/12/23 01:52:33;;;;;;;;;;;;;;;7.67;100.00;100347.34;5091686;28;20401;-75
2022/12/23 01:54:58;;;;;;;;;;;;;;;7.68;100.00;100348.16;5089299;28;19911;-76
2022/12/23 01:57:24;;;;;;;;;;;;;;;7.69;100.00;100347.19;5090666;28;19926;-75
2022/12/23 02:05:20;;;;;;;;;;;;;;;7.59;100.00;100357.72;5090563;28;20438;-75
2022/12/23 02:10:38;;;;;;;;;;;;;;;7.58;100.00;100359.53;5092347;28;20009;-75
2022/12/23 02:13:26;;;;;;;;;;;;;;;7.55;100.00;100366.84;5090991;28;19978;-75
2022/12/23 02:16:16;;;;;;;;;;;;;;;7.56;100.00;100376.41;5077353;28;20325;-75
2022/12/23 02:19:04;;;;;;;;;;;;;;;7.55;100.00;100386.06;5097106;28;19915;-74
2022/12/23 02:21:36;;;;;;;;;;;;;;;7.54;100.00;100392.28;5091477;28;19943;-74
2022/12/23 02:24:02;;;;;;;;;;;;;;;7.52;100.00;100391.59;5090763;28;20425;-74
2022/12/23 02:26:27;;;;;;;;;;;;;;;7.50;100.00;100395.34;5088728;28;19915;-75
2022/12/23 02:29:11;;;;;;;;;;;;;;;7.50;100.00;100393.53;5090929;28;19915;-75
2022/12/23 02:31:55;;;;;;;;;;;;;;;7.49;100.00;100401.53;5090797;28;20408;-75
2022/12/23 02:34:39;;;;;;;;;;;;;;;7.48;100.00;100405.97;5087956;28;20286;-75
2022/12/23 02:37:13;;;;;;;;;;;;;;;7.49;100.00;100401.53;5089284;28;19927;-75
2022/12/23 02:39:44;;;;;;;;;;;;;;;7.49;100.00;100406.78;5096858;28;20402;-75
2022/12/23 02:42:19;;;;;;;;;;;;;;;7.51;100.00;100415.38;5095345;28;19919;-75
2022/12/23 02:44:49;;;;;;;;;;;;;;;7.47;100.00;100414.84;5088800;28;19915;-75
2022/12/23 02:47:26;;;;;;;;;;;;;;;7.44;100.00;100416.91;5096769;28;20015;-75
2022/12/23 02:49:56;;;;;;;;;;;;;;;7.44;100.00;100420.34;5089900;28;20098;-75
2022/12/23 02:52:26;;;;;;;;;;;;;;;7.41;100.00;100431.16;5095454;28;20327;-75
2022/12/23 02:54:53;;;;;;;;;;;;;;;7.41;100.00;100437.22;5088928;28;20400;-75
2022/12/23 02:57:21;;;;;;;;;;;;;;;7.41;100.00;100431.97;5094282;28;20385;-74
2022/12/23 02:59:48;;;;;;;;;;;;;;;7.41;100.00;100439.84;5089657;28;20325;-75
2022/12/23 03:02:13;;;;;;;;;;;;;;;7.44;100.00;100430.84;5090024;28;19922;-75
2022/12/23 03:04:40;;;;;;;;;;;;;;;7.43;100.00;100426.59;5089494;28;19923;-74
2022/12/23 03:07:12;;;;;;;;;;;;;;;7.42;100.00;100432.78;5089043;28;20033;-75
2022/12/23 03:09:57;;;;;;;;;;;;;;;7.41;100.00;100431.97;5089163;28;19920;-75
2022/12/23 03:12:31;;;;;;;;;;;;;;;7.41;100.00;100439.03;5089035;28;19965;-75
2022/12/23 03:14:56;;;;;;;;;;;;;;;7.40;100.00;100451.31;5086143;28;19922;-76
2022/12/23 03:17:37;;;;;;;;;;;;;;;7.41;100.00;100455.59;5088847;28;19915;-75
2022/12/23 03:20:08;;;;;;;;;;;;;;;7.40;100.00;100451.31;5089646;28;19923;-75
2022/12/23 03:22:39;;;;;;;;;;;;;;;7.40;100.00;100453.94;5091094;28;19916;-75
2022/12/23 03:25:07;;;;;;;;;;;;;;;7.40;100.00;100459.19;5088290;28;20069;-75
2022/12/23 03:27:37;;;;;;;;;;;;;;;7.38;100.00;100473.41;5087363;28;19927;-76
2022/12/23 03:30:05;;;;;;;;;;;;;;;7.34;100.00;100470.25;5090013;28;20381;-75
2022/12/23 03:32:48;;;;;;;;;;;;;;;7.33;100.00;100476.47;5088654;28;19920;-76
2022/12/23 03:35:19;;;;;;;;;;;;;;;7.32;100.00;100480.06;5089061;28;20328;-75
2022/12/23 03:37:47;;;;;;;;;;;;;;;7.34;100.00;100493.06;5089635;28;19967;-76
2022/12/23 03:40:16;;;;;;;;;;;;;;;7.35;100.00;100494.69;5086751;28;19916;-74
2022/12/23 03:42:44;;;;;;;;;;;;;;;7.33;100.00;100486.94;5088920;28;19922;-74
2022/12/23 03:45:15;;;;;;;;;;;;;;;7.35;100.00;100494.69;5087737;28;19916;-76
2022/12/23 03:47:52;;;;;;;;;;;;;;;7.38;100.00;100495.25;5089528;28;19923;-74
2022/12/23 03:50:19;;;;;;;;;;;;;;;7.38;100.00;100492.63;5088606;28;19919;-74
2022/12/23 03:52:49;;;;;;;;;;;;;;;7.40;100.00;100493.34;5088649;28;19922;-74
2022/12/23 03:55:17;;;;;;;;;;;;;;;7.38;100.00;100492.63;5087756;28;19920;-74
2022/12/23 03:57:50;;;;;;;;;;;;;;;7.39;100.00;100496.09;5087838;28;20391;-74
2022/12/23 04:00:15;;;;;;;;;;;;;;;7.37;100.00;100493.59;5087904;28;19920;-75
2022/12/23 04:02:44;;;;;;;;;;;;;;;7.35;100.00;100495.53;5086936;28;20229;-75
2022/12/23 04:05:16;;;;;;;;;;;;;;;7.35;100.00;100500.78;5088105;28;20285;-74
2022/12/23 04:07:57;;;;;;;;;;;;;;;7.35;100.00;100500.78;5087940;28;20006;-75
2022/12/23 04:10:23;;;;;;;;;;;;;;;7.31;100.00;100499.38;5085545;28;19926;-75
2022/12/23 04:12:50;;;;;;;;;;;;;;;7.28;100.00;100499.66;5087763;28;20068;-74
2022/12/23 04:15:22;;;;;;;;;;;;;;;7.28;100.00;100493.59;5087727;28;20022;-74
2022/12/23 04:17:48;;;;;;;;;;;;;;;7.33;100.00;100513.22;5088726;28;20003;-75
2022/12/23 04:20:13;;;;;;;;;;;;;;;7.32;100.00;100510.75;5088109;28;20272;-74
2022/12/23 04:22:38;;;;;;;;;;;;;;;7.31;100.00;100517.75;5088410;28;19931;-75
2022/12/23 04:25:04;;;;;;;;;;;;;;;7.34;100.00;100504.38;5070924;28;20059;-75
2022/12/23 04:27:29;;;;;;;;;;;;;;;7.33;100.00;100507.13;5085788;28;19947;-75
2022/12/23 04:29:55;;;;;;;;;;;;;;;7.33;100.00;100507.97;5086507;28;20276;-74
2022/12/23 04:32:20;;;;;;;;;;;;;;;7.35;100.00;100519.16;5087526;28;19920;-74
2022/12/23 04:34:45;;;;;;;;;;;;;;;7.34;100.00;100517.50;5087694;28;19997;-74
2022/12/23 04:37:10;;;;;;;;;;;;;;;7.35;100.00;100528.84;5093119;28;20280;-74
2022/12/23 04:39:36;;;;;;;;;;;;;;;7.34;100.00;100533.25;5086132;28;19920;-74
2022/12/23 04:42:01;;;;;;;;;;;;;;;7.29;100.00;100532.81;5088624;28;19920;-75
2022/12/23 04:44:26;;;;;;;;;;;;;;;7.32;100.00;100529.13;5088401;28;19920;-75
2022/12/23 04:46:51;;;;;;;;;;;;;;;7.34;100.00;100533.25;5087821;28;19937;-75
2022/12/23 04:49:16;;;;;;;;;;;;;;;7.29;100.00;100526.75;5086003;28;20043;-75
2022/12/23 04:51:42;;;;;;;;;;;;;;;7.22;100.00;100515.97;5088358;28;19985;-75
2022/12/23 04:54:07;;;;;;;;;;;;;;;7.18;100.00;100512.78;5086041;28;19919;-75
2022/12/23 04:56:32;;;;;;;;;;;;;;;7.15;100.00;100507.81;5087156;28;19919;-75
2022/12/23 04:59:00;;;;;;;;;;;;;;;7.13;100.00;100509.72;5087970;28;20208;-75
2022/12/23 05:01:26;;;;;;;;;;;;;;;7.06;100.00;100505.19;5087869;28;19924;-75
2022/12/23 05:03:51;;;;;;;;;;;;;;;7.02;100.00;100509.03;5088089;28;19938;-75
2022/12/23 05:06:16;;;;;;;;;;;;;;;6.97;100.00;100510.28;5086555;28;19920;-74
2022/12/23 05:08:41;;;;;;;;;;;;;;;6.96;100.00;100521.72;5086916;28;19924;-75
2022/12/23 05:11:07;;;;;;;;;;;;;;;6.95;100.00;100529.75;5088602;28;19920;-74
2022/12/23 05:13:32;;;;;;;;;;;;;;;6.93;100.00;100529.03;5078523;28;20515;-75
2022/12/23 05:15:57;;;;;;;;;;;;;;;6.93;100.00;100529.88;5081178;28;19999;-75
2022/12/23 05:18:22;;;;;;;;;;;;;;;6.93;100.00;100532.47;5089424;28;20010;-75
2022/12/23 05:20:48;;;;;;;;;;;;;;;6.94;100.00;100534.13;5092515;28;19958;-74
2022/12/23 05:23:13;;;;;;;;;;;;;;;6.96;100.00;100532.22;5091689;28;20165;-74
2022/12/23 05:25:39;;;;;;;;;;;;;;;6.96;100.00;100537.44;5073809;28;20370;-75
2022/12/23 05:28:05;;;;;;;;;;;;;;;6.89;100.00;100535.50;5090659;28;19923;-74
2022/12/23 05:30:30;;;;;;;;;;;;;;;6.80;100.00;100537.16;5091941;28;20350;-76
2022/12/23 05:32:57;;;;;;;;;;;;;;;6.76;100.00;100541.81;5092827;28;19915;-74
2022/12/23 05:35:23;;;;;;;;;;;;;;;6.76;100.00;100546.25;5091760;28;19923;-74
2022/12/23 05:37:49;;;;;;;;;;;;;;;6.73;100.00;100536.03;5090212;28;19916;-75
2022/12/23 05:40:14;;;;;;;;;;;;;;;6.70;100.00;100539.72;5089428;28;19926;-74
2022/12/23 05:42:39;;;;;;;;;;;;;;;6.72;100.00;100534.34;5091005;28;19920;-75
2022/12/23 05:45:05;;;;;;;;;;;;;;;6.72;100.00;100536.97;5091719;28;19978;-74
2022/12/23 05:47:30;;;;;;;;;;;;;;;6.68;100.00;100539.00;5089621;28;20505;-74
2022/12/23 05:49:55;;;;;;;;;;;;;;;6.69;100.00;100539.88;5091550;28;20310;-75
2022/12/23 05:52:20;;;;;;;;;;;;;;;6.64;100.00;100536.78;5091266;28;20541;-75
2022/12/23 05:54:46;;;;;;;;;;;;;;;6.58;100.00;100527.69;5090813;28;20003;-75
2022/12/23 05:57:11;;;;;;;;;;;;;;;6.57;100.00;100539.94;5086183;28;20260;-75
2022/12/23 05:59:37;;;;;;;;;;;;;;;6.58;100.00;100544.25;5072277;28;20016;-75
2022/12/23 06:02:02;;;;;;;;;;;;;;;6.56;100.00;100546.16;5086500;28;19962;-75
2022/12/23 06:04:27;;;;;;;;;;;;;;;6.53;100.00;100556.91;5088255;28;19943;-75
2022/12/23 06:06:52;;;;;;;;;;;;;;;6.52;100.00;100562.28;5088876;28;19920;-75
2022/12/23 06:09:18;;;;;;;;;;;;;;;6.51;100.00;100564.09;5086454;28;19919;-75
2022/12/23 06:11:43;;;;;;;;;;;;;;;6.52;100.00;100564.91;5086095;28;20289;-75
2022/12/23 06:14:09;;;;;;;;;;;;;;;6.55;100.00;100564.63;5084954;28;19922;-75
2022/12/23 06:16:34;;;;;;;;;;;;;;;6.55;100.00;100565.50;5087254;28;19959;-75
2022/12/23 06:18:59;;;;;;;;;;;;;;;6.49;100.00;100571.25;5087244;28;19999;-75
2022/12/23 06:21:24;;;;;;;;;;;;;;;6.47;100.00;100562.69;5086279;28;19920;-74
2022/12/23 06:23:50;;;;;;;;;;;;;;;6.47;100.00;100554.81;5088242;28;19959;-75
2022/12/23 06:26:15;;;;;;;;;;;;;;;6.46;100.00;100553.13;5086627;28;19919;-75
2022/12/23 06:28:40;;;;;;;;;;;;;;;6.47;100.00;100556.63;5087324;28;20069;-76
2022/12/23 06:31:05;;;;;;;;;;;;;;;6.42;100.00;100558.78;5087074;28;19955;-75
2022/12/23 06:33:31;;;;;;;;;;;;;;;6.37;100.00;100546.06;5088837;28;19912;-75
2022/12/23 06:35:56;;;;;;;;;;;;;;;6.33;100.00;100558.59;5088241;28;19922;-76
2022/12/23 06:38:21;;;;;;;;;;;;;;;6.32;100.00;100569.22;5087658;28;20291;-75
2022/12/23 06:40:47;;;;;;;;;;;;;;;6.29;100.00;100569.47;5088649;28;19927;-75
2022/12/23 06:43:12;;;;;;;;;;;;;;;6.26;100.00;100569.72;5087814;28;19959;-76
2022/12/23 06:45:37;;;;;;;;;;;;;;;6.18;100.00;100570.38;5087932;28;20409;-76
2022/12/23 06:48:03;;;;;;;;;;;;;;;6.13;100.00;100570.75;5087195;28;19924;-75
2022/12/23 06:50:28;;;;;;;;;;;;;;;6.12;100.00;100579.59;5087714;28;20366;-75
2022/12/23 06:52:53;;;;;;;;;;;;;;;6.08;100.00;100583.41;5087793;28;19915;-75
2022/12/23 06:55:19;;;;;;;;;;;;;;;6.07;100.00;100596.63;5069560;28;19919;-75
2022/12/23 06:57:44;;;;;;;;;;;;;;;6.06;100.00;100598.44;5087444;28;20268;-75
2022/12/23 07:00:09;;;;;;;;;;;;;;;6.01;100.00;100603.22;5085633;28;20048;-75
2022/12/23 07:02:36;;;;;;;;;;;;;;;6.07;100.00;100607.94;5088636;28;19955;-74
2022/12/23 07:05:01;;;;;;;;;;;;;;;6.15;100.00;100620.41;5084420;28;19920;-75
2022/12/23 07:07:26;;;;;;;;;;;;;;;6.18;100.00;100639.34;5090444;28;19921;-75
2022/12/23 07:09:52;;;;;;;;;;;;;;;6.15;100.00;100642.19;5087977;28;19924;-75
2022/12/23 07:12:18;;;;;;;;;;;;;;;6.19;100.00;100650.66;5087182;28;19923;-74
2022/12/23 07:14:43;;;;;;;;;;;;;;;6.26;100.00;100664.09;5087626;28;19916;-75
2022/12/23 07:17:08;;;;;;;;;;;;;;;6.27;100.00;100650.84;5087476;28;19951;-75
2022/12/23 07:19:34;;;;;;;;;;;;;;;6.28;100.00;100668.22;5086655;28;19923;-75
2022/12/23 07:21:59;;;;;;;;;;;;;;;6.30;100.00;100655.84;5086844;28;19912;-75
2022/12/23 07:24:24;;;;;;;;;;;;;;;6.35;100.00;100658.06;5087295;28;20369;-75
2022/12/23 07:26:50;;;;;;;;;;;;;;;6.38;100.00;100661.28;5087577;28;19934;-75
2022/12/23 07:29:15;;;;;;;;;;;;;;;6.41;100.00;100662.81;5085524;28;20276;-75
2022/12/23 07:31:40;;;;;;;;;;;;;;;6.44;100.00;100667.78;5086689;28;19920;-75
2022/12/23 07:34:06;;;;;;;;;;;;;;;6.43;100.00;100660.91;5090149;28;19915;-75
2022/12/23 07:36:31;;;;;;;;;;;;;;;6.44;100.00;100662.53;5089074;28;20230;-75
2022/12/23 07:38:56;;;;;;;;;;;;;;;6.47;100.00;100658.84;5088570;28;19919;-75
2022/12/23 07:41:22;;;;;;;;;;;;;;;6.48;100.00;100661.34;5086183;28;20789;-76
2022/12/23 07:43:47;;;;;;;;;;;;;;;6.45;100.00;100661.59;5089178;28;19933;-76
2022/12/23 07:46:12;;;;;;;;;;;;;;;6.47;100.00;100664.09;5072115;28;20219;-75
2022/12/23 07:48:41;;;;;;;;;;;;;;;6.49;100.00;100676.13;5086774;28;19920;-76
2022/12/23 07:51:06;;;;;;;;;;;;;;;6.52;100.00;100675.84;5096435;28;20297;-76
2022/12/23 07:53:32;;;;;;;;;;;;;;;6.53;100.00;100679.28;5087664;28;19915;-76
2022/12/23 07:55:57;;;;;;;;;;;;;;;6.56;100.00;100677.25;5087695;28;19919;-75
2022/12/23 07:58:23;;;;;;;;;;;;;;;6.55;100.00;100672.13;5087685;28;19919;-75
2022/12/23 08:00:48;;;;;;;;;;;;;;;6.57;100.00;100671.03;5087571;28;19988;-76
2022/12/23 08:03:13;;;;;;;;;;;;;;;6.61;100.00;100669.00;5071060;28;20477;-76
2022/12/23 08:05:38;;;;;;;;;;;;;;;6.63;100.00;100676.75;5088565;28;19988;-76
2022/12/23 08:08:03;;;;;;;;;;;;;;;6.57;100.00;100673.66;5086356;28;19982;-75
2022/12/23 08:10:29;;;;;;;;;;;;;;;6.53;100.00;100674.91;5087636;28;19924;-74
2022/12/23 08:12:54;;;;;;;;;;;;;;;6.46;100.00;100676.34;5086217;28;20508;-74
2022/12/23 08:15:20;;;;;;;;;;;;;;;6.38;100.00;100676.19;5088231;28;20249;-75
2022/12/23 08:17:45;;;;;;;;;;;;;;;6.33;100.00;100687.03;5086721;28;19923;-75
2022/12/23 08:20:10;;;;;;;;;;;;;;;6.32;100.00;100689.78;5085696;28;19908;-75
2022/12/23 08:22:35;;;;;;;;;;;;;;;6.22;100.00;100679.22;5087674;28;19922;-75
2022/12/23 08:25:01;;;;;;;;;;;;;;;6.16;100.00;100684.94;5085647;28;20223;-75
2022/12/23 08:27:26;;;;;;;;;;;;;;;6.11;100.00;100687.13;5087237;28;20256;-77
2022/12/23 08:29:51;;;;;;;;;;;;;;;6.09;100.00;100684.63;5068328;28;20377;-77
2022/12/23 08:32:17;;;;;;;;;;;;;;;6.10;100.00;100675.81;5085698;28;19915;-75
2022/12/23 08:34:42;;;;;;;;;;;;;;;6.16;100.00;100674.47;5086893;28;19916;-75
2022/12/23 08:37:07;;;;;;;;;;;;;;;6.26;100.00;100679.81;5085990;28;19916;-75
2022/12/23 08:39:32;;;;;;;;;;;;;;;6.38;100.00;100676.19;5068120;28;19916;-75
2022/12/23 08:41:58;;;;;;;;;;;;;;;6.49;100.00;100675.25;5085973;28;19974;-75
2022/12/23 08:44:26;;;;;;;;;;;;;;;6.62;100.00;100677.69;5068492;28;20036;-75
2022/12/23 08:46:51;;;;;;;;;;;;;;;6.57;100.00;100688.56;5086381;28;19919;-75
2022/12/23 08:49:17;;;;;;;;;;;;;;;6.44;100.00;100680.91;5087279;28;20294;-75
2022/12/23 08:51:42;;;;;;;;;;;;;;;6.43;100.00;100676.63;5088910;28;20202;-75
2022/12/23 08:54:09;;;;;;;;;;;;;;;6.44;100.00;100678.28;5090690;28;20460;-75
2022/12/23 08:56:35;;;;;;;;;;;;;;;6.44;100.00;100675.66;5091258;28;19938;-75
2022/12/23 08:59:01;;;;;;;;;;;;;;;6.53;100.00;100680.16;5090248;28;20451;-75
2022/12/23 09:01:27;;;;;;;;;;;;;;;6.62;100.00;100677.69;5090198;28;19911;-75
2022/12/23 09:03:52;;;;;;;;;;;;;;;6.85;100.00;100673.16;5089911;28;20596;-75
2022/12/23 09:06:20;;;;;;;;;;;;;;;7.11;100.00;100669.13;5090984;28;19915;-75
2022/12/23 09:08:45;;;;;;;;;;;;;;;7.33;100.00;100691.72;5089991;28;19994;-75
2022/12/23 09:11:12;;;;;;;;;;;;;;;7.26;100.00;100681.91;5087981;28;19955;-75
2022/12/23 09:13:37;;;;;;;;;;;;;;;7.40;100.00;100679.75;5106335;27;19912;-76
2022/12/23 09:16:03;;;;;;;;;;;;;;;7.50;100.00;100685.00;5104801;27;19943;-76
2022/12/23 09:18:28;;;;;;;;;;;;;;;7.46;100.00;100670.50;5090316;27;20112;-75
2022/12/23 09:21:00;;;;;;;;;;;;;;;7.37;100.00;100659.00;5089199;28;19958;-75
2022/12/23 09:23:26;;;;;;;;;;;;;;;7.23;100.00;100651.50;5089569;28;19915;-75
2022/12/23 09:25:52;;;;;;;;;;;;;;;7.00;100.00;100646.44;5090684;28;19908;-76
2022/12/23 09:28:17;;;;;;;;;;;;;;;6.90;100.00;100640.31;5089526;28;20146;-75
2022/12/23 09:30:42;;;;;;;;;;;;;;;6.91;100.00;100639.34;5089190;28;20333;-75
2022/12/23 09:33:07;;;;;;;;;;;;;;;6.96;100.00;100623.22;5089498;28;20006;-75
2022/12/23 09:35:33;;;;;;;;;;;;;;;7.13;100.00;100629.63;5089977;28;20425;-75
2022/12/23 09:37:58;;;;;;;;;;;;;;;7.21;100.00;100635.88;5090007;27;19984;-75
2022/12/23 09:40:23;;;;;;;;;;;;;;;7.22;100.00;100634.09;5088805;28;20279;-76
2022/12/23 09:42:49;;;;;;;;;;;;;;;7.17;100.00;100628.41;5096086;28;19922;-75
2022/12/23 09:45:32;;;;;;;;;;;;;;;7.13;100.00;100627.84;5088685;28;20373;-75
2022/12/23 09:47:57;;;;;;;;;;;;;;;7.19;100.00;100631.72;5088212;28;19923;-75
2022/12/23 09:50:25;;;;;;;;;;;;;;;7.31;100.00;100624.56;5089519;28;19915;-76
2022/12/23 09:52:59;;;;;;;;;;;;;;;7.44;100.00;100622.53;5096141;28;20706;-76
2022/12/23 09:55:29;;;;;;;;;;;;;;;7.56;100.00;100618.81;5088973;28;20641;-76
2022/12/23 09:57:59;;;;;;;;;;;;;;;7.53;100.00;100613.00;5089688;28;19912;-75
2022/12/23 10:00:28;;;;;;;;;;;;;;;7.63;100.00;100606.81;5102532;27;20286;-75
2022/12/23 10:02:59;;;;;;;;;;;;;;;7.78;100.00;100598.53;5089644;28;20582;-76
2022/12/23 10:05:31;;;;;;;;;;;;;;;7.82;100.00;100595.50;5089684;28;19912;-76
2022/12/23 10:08:07;;;;;;;;;;;;;;;7.93;100.00;100586.63;5095318;28;20002;-76
2022/12/23 10:10:56;;;;;;;;;;;;;;;8.00;100.00;100574.59;5088182;28;19919;-75
2022/12/23 10:13:44;;;;;;;;;;;;;;;8.12;100.00;100577.06;5048950;28;20303;-76
2022/12/23 10:16:18;;;;;;;;;;;;;;;8.70;100.00;100587.47;5080287;28;19952;-76
2022/12/23 10:18:46;;;;;;;;;;;;;;;9.94;100.00;100600.19;5088667;28;19916;-76
2022/12/23 10:21:30;;;;;;;;;;;;;;;10.42;100.00;100586.53;5086635;28;19951;-76
2022/12/23 10:23:59;;;;;;;;;;;;;;;10.54;100.00;100568.66;5089045;28;20032;-76
2022/12/23 10:26:30;;;;;;;;;;;;;;;10.23;100.00;100550.63;5086878;28;19915;-76
2022/12/23 10:28:59;;;;;;;;;;;;;;;9.80;100.00;100531.22;5094709;28;19919;-76
2022/12/23 10:31:35;;;;;;;;;;;;;;;9.42;100.00;100532.34;5085363;28;20554;-76
2022/12/23 10:34:06;;;;;;;;;;;;;;;9.16;100.00;100513.81;5089203;28;19912;-76
2022/12/23 10:36:31;;;;;;;;;;;;;;;8.56;100.00;100523.00;5089821;28;19916;-76
2022/12/23 10:39:02;;;;;;;;;;;;;;;8.28;100.00;100530.00;5088526;28;19972;-76
2022/12/23 10:41:37;;;;;;;;;;;;;;;8.19;100.00;100541.38;5087611;28;19912;-76
2022/12/23 10:44:21;;;;;;;;;;;;;;;7.88;100.00;100545.97;5088045;28;19912;-76
2022/12/23 10:46:49;;;;;;;;;;;;;;;7.66;100.00;100540.03;5094986;28;19921;-76
2022/12/23 10:49:23;;;;;;;;;;;;;;;7.52;100.00;100551.78;5086654;28;19923;-76
2022/12/23 10:51:54;;;;;;;;;;;;;;;7.21;100.00;100543.19;5087624;28;19912;-76
2022/12/23 10:54:28;;;;;;;;;;;;;;;7.04;100.00;100541.22;5094785;28;19911;-76
2022/12/23 10:56:53;;;;;;;;;;;;;;;6.98;100.00;100551.28;5087780;28;20341;-75
2022/12/23 10:59:24;;;;;;;;;;;;;;;6.85;100.00;100561.19;5087876;28;20129;-75
2022/12/23 11:01:51;;;;;;;;;;;;;;;6.85;100.00;100566.41;5087894;28;19911;-77
2022/12/23 11:04:18;;;;;;;;;;;;;;;7.02;100.00;100572.84;5104401;27;19911;-76
2022/12/23 11:06:49;;;;;;;;;;;;;;;7.15;100.00;100588.34;5087807;28;20186;-76
2022/12/23 11:09:20;;;;;;;;;;;;;;;7.10;100.00;100580.03;5088106;28;19970;-76
2022/12/23 11:11:52;;;;;;;;;;;;;;;7.01;100.00;100586.91;5087202;28;19915;-76
2022/12/23 11:14:28;;;;;;;;;;;;;;;7.07;100.00;100590.78;5087538;28;20208;-76
2022/12/23 11:16:53;;;;;;;;;;;;;;;7.13;100.00;100596.34;5088716;28;20402;-76
2022/12/23 11:19:19;;;;;;;;;;;;;;;7.21;100.00;100593.88;5087680;28;19926;-76
2022/12/23 11:21:54;;;;;;;;;;;;;;;7.26;100.00;100588.22;5087820;28;20357;-76
2022/12/23 11:24:21;;;;;;;;;;;;;;;7.24;100.00;100592.78;5087481;28;19912;-76
2022/12/23 11:26:48;;;;;;;;;;;;;;;7.31;100.00;100590.44;5089271;28;20006;-76
2022/12/23 11:29:22;;;;;;;;;;;;;;;7.16;100.00;100580.34;5090325;28;20368;-76
2022/12/23 11:31:47;;;;;;;;;;;;;;;7.00;100.00;100578.22;5090100;28;20435;-76
2022/12/23 11:34:17;;;;;;;;;;;;;;;7.01;100.00;100571.16;5089745;28;19911;-76
2022/12/23 11:36:42;;;;;;;;;;;;;;;7.07;100.00;100560.13;5091107;28;20087;-76
2022/12/23 11:39:11;;;;;;;;;;;;;;;7.14;100.00;100555.19;5089650;28;19938;-77
2022/12/23 11:41:37;;;;;;;;;;;;;;;7.18;100.00;100567.06;5088460;28;19939;-76
2022/12/23 11:44:05;;;;;;;;;;;;;;;7.27;100.00;100570.69;5091430;28;19915;-76
2022/12/23 11:46:32;;;;;;;;;;;;;;;7.32;100.00;100560.63;5089020;28;19941;-76
2022/12/23 11:49:13;;;;;;;;;;;;;;;7.48;100.00;100558.28;5088487;28;19916;-76
2022/12/23 11:51:39;;;;;;;;;;;;;;;7.58;100.00;100563.56;5089754;28;19923;-76
2022/12/23 11:54:04;;;;;;;;;;;;;;;7.60;100.00;100544.06;5086493;28;19916;-76
2022/12/23 11:56:36;;;;;;;;;;;;;;;7.57;100.00;100535.59;5087773;28;19919;-76
2022/12/23 11:59:06;;;;;;;;;;;;;;;7.44;100.00;100522.75;5087991;28;20014;-76
2022/12/23 12:01:32;;;;;;;;;;;;;;;7.31;100.00;100514.31;5087088;28;19912;-76
2022/12/23 12:04:02;;;;;;;;;;;;;;;7.33;100.00;100507.97;5086243;28;19981;-76
2022/12/23 12:06:29;;;;;;;;;;;;;;;7.39;100.00;100496.09;5087601;28;19915;-76
2022/12/23 12:08:56;;;;;;;;;;;;;;;7.40;100.00;100490.72;5085482;28;20455;-76
2022/12/23 12:11:42;;;;;;;;;;;;;;;7.46;100.00;100475.34;5087421;28;20700;-76
2022/12/23 12:14:18;;;;;;;;;;;;;;;7.61;100.00;100479.22;5086974;28;20443;-76
2022/12/23 12:16:51;;;;;;;;;;;;;;;7.66;100.00;100474.38;5086022;28;19959;-76
2022/12/23 12:19:21;;;;;;;;;;;;;;;7.61;100.00;100490.53;5087329;28;20038;-76
2022/12/23 12:21:49;;;;;;;;;;;;;;;7.34;100.00;100488.63;5086183;28;19912;-76
2022/12/23 12:24:18;;;;;;;;;;;;;;;7.21;100.00;100480.19;5086040;28;20002;-76
2022/12/23 12:26:49;;;;;;;;;;;;;;;7.19;100.00;100482.13;5087205;28;20134;-76
2022/12/23 12:29:17;;;;;;;;;;;;;;;7.25;100.00;100484.22;5085895;28;19959;-76
2022/12/23 12:31:47;;;;;;;;;;;;;;;7.28;100.00;100481.31;5086973;28;19994;-76
2022/12/23 12:34:31;;;;;;;;;;;;;;;7.19;100.00;100485.56;5086584;28;20006;-76
2022/12/23 12:36:59;;;;;;;;;;;;;;;7.20;100.00;100495.09;5086847;28;19950;-76
2022/12/23 12:39:31;;;;;;;;;;;;;;;7.27;100.00;100508.50;5086000;28;19912;-76
2022/12/23 12:42:01;;;;;;;;;;;;;;;7.20;100.00;100502.16;5085838;28;19923;-76
2022/12/23 12:44:45;;;;;;;;;;;;;;;7.17;100.00;100502.44;5085822;28;20298;-76
2022/12/23 12:47:18;;;;;;;;;;;;;;;7.20;100.00;100512.66;5085217;28;19938;-76
2022/12/23 12:49:47;;;;;;;;;;;;;;;7.12;100.00;100500.22;5086539;28;20452;-76
2022/12/23 12:52:14;;;;;;;;;;;;;;;7.17;100.00;100497.19;5085893;28;19916;-76
2022/12/23 12:54:47;;;;;;;;;;;;;;;7.20;100.00;100486.41;5087162;28;19951;-76
2022/12/23 12:57:18;;;;;;;;;;;;;;;7.24;100.00;100490.41;5084590;28;19961;-76
2022/12/23 12:59:43;;;;;;;;;;;;;;;7.21;100.00;100482.81;5085823;28;19911;-76
2022/12/23 13:02:28;;;;;;;;;;;;;;;7.32;100.00;100476.63;5084878;28;20329;-75